• Join FlightAware (Why Join?)
  • Login
  • US Flag 
05:22PM EDT


 

Airport Tracker/Info


-or-


 

Live Flight TrackerFlight Track Log ✈ N680AN ✈ 24-Apr-2013 ✈ KDFW - SPIM / LIM

Flight Track Log - Related Links

Times and Time Zones

All times are in EDT time to prevent confusion due to time zone crossing. See the N680AN flight status page for this flight to view local times or setup timezone preferences in your user account.

Time Position Orientation Groundspeed Altitude Reporting Facility
EDT Latitude Longitude Course Direction KTS MPH feet Rate Location/Type
06:48PM 32.9167 -97.0333 166° South 163 188 2,000  Level Dallas / Fort Worth TRACON
06:49PM 32.9833 -97.0167 12° North 226 260 3,700 2,280 Climbing Dallas / Fort Worth TRACON
06:50PM 33.0167 -96.9667 52° Northeast 259 298 6,600 2,580 Climbing Dallas / Fort Worth TRACON
06:51PM 32.5230 -96.9281 157° South  Level FlightAware Approximate
06:51PM 33.0000 -96.8833 103° East 288 331 8,700  Level Dallas / Fort Worth TRACON
06:52PM 32.4053 -96.8746 159° South  Level FlightAware Approximate
06:53PM 32.2935 -96.8076 148° Southeast  Level FlightAware Approximate
06:53PM 32.8944 -96.7925 144° Southeast 286 329 11,900  Level Fort Worth Center
06:54PM 32.1728 -96.7668 166° South  Level FlightAware Approximate
06:54PM 32.7881 -96.7931 180° South 336 387 14,200  Level Fort Worth Center
06:55PM 32.6942 -96.7961 182° South 374 430 16,500 2,220 Climbing Fort Worth Center
06:56PM 32.5772 -96.8019 182° South 390 449 18,700 2,040 Climbing Fort Worth Center
06:57PM 32.4769 -96.8075 183° South 396 456 20,600 1,980 Climbing Fort Worth Center
06:58PM 32.3539 -96.8133 182° South 408 470 22,700 2,040 Climbing Fort Worth Center
06:59PM 32.2369 -96.7969 173° South 419 482 24,700 1,620 Climbing Fort Worth Center
07:00PM 32.1303 -96.7583 163° South 430 495 26,000 1,320 Climbing Fort Worth Center
07:01PM 32.0108 -96.7103 161° South 446 513 27,400 1,440 Climbing Fort Worth Center
07:02PM 31.8750 -96.6597 162° South 454 522 28,900 1,320 Climbing Fort Worth Center
07:03PM 31.7494 -96.6097 161° South 468 539 30,100 1,200 Climbing Fort Worth Center
07:04PM 31.5992 -96.5453 160° South 488 562 31,600 1,260 Climbing Houston Center
07:05PM 31.4678 -96.4928 161° South 489 563 33,000 1,380 Climbing Houston Center
07:06PM 31.3378 -96.4436 162° South 485 558 34,500 1,260 Climbing Houston Center
07:07PM 31.2164 -96.3650 151° Southeast 505 581 35,700 1,020 Climbing Houston Center
07:09PM 31.1028 -96.2736 145° Southeast 492 566 36,700 600 Climbing Houston Center
07:10PM 30.9878 -96.1844 146° Southeast 490 564 37,000 120 Climbing Houston Center
07:11PM 30.8733 -96.0944 146° Southeast 490 564 37,000  Level Houston Center
07:12PM 30.7539 -96.0028 147° Southeast 488 562 37,000  Level Houston Center
07:13PM 30.6378 -95.9133 146° Southeast 489 563 37,000  Level Houston Center
07:14PM 30.5256 -95.8247 146° Southeast 490 564 37,000  Level Houston Center
07:15PM 30.4119 -95.7381 147° Southeast 488 562 37,000  Level Houston Center
07:16PM 30.3006 -95.6508 146° Southeast 484 557 37,000  Level Houston Center
07:17PM 30.1644 -95.5444 146° Southeast 490 564 37,000  Level Houston Center
07:18PM 30.0506 -95.4575 147° Southeast 491 565 37,000  Level Houston Center
07:19PM 29.9383 -95.3703 146° Southeast 488 562 37,000  Level Houston Center
07:20PM 29.8253 -95.2847 147° Southeast 485 558 37,000  Level Houston Center
07:21PM 29.6975 -95.1883 147° Southeast 487 560 37,000  Level Houston Center
07:22PM 29.5867 -95.1058 147° Southeast 495 570 37,000  Level Houston Center
07:23PM 29.4675 -95.0139 146° Southeast 503 579 37,000  Level Houston Center
07:24PM 29.3531 -94.9283 147° Southeast 492 566 37,000  Level Houston Center
07:25PM 29.2389 -94.8431 147° Southeast 491 565 37,000  Level Houston Center
07:26PM 29.1203 -94.7644 150° Southeast 491 565 37,000  Level Houston Center
07:27PM 28.9786 -94.6689 149° Southeast 492 566 37,000  Level Houston Center
07:28PM 28.8611 -94.5889 149° Southeast 492 566 37,000  Level Houston Center
07:29PM 28.7428 -94.5108 150° Southeast 492 566 37,000  Level Houston Center
07:30PM 28.6258 -94.4319 149° Southeast 489 563 37,000  Level Houston Center
07:31PM 28.5064 -94.3528 150° Southeast 495 570 37,000  Level Houston Center
07:32PM 28.3881 -94.2736 150° Southeast 494 568 37,000  Level Houston Center
07:33PM 28.2658 -94.1972 151° Southeast 497 572 37,000  Level Houston Center
07:34PM 28.1258 -94.0972 148° Southeast 499 574 37,000  Level Houston Center
07:35PM 28.0208 -93.9864 137° Southeast 512 589 37,000  Level Houston Center
07:36PM 27.9133 -93.8778 138° Southeast 515 593 37,000  Level Houston Center
07:37PM 27.8056 -93.7714 139° Southeast 516 594 37,000  Level Houston Center
07:38PM 27.6947 -93.6708 141° Southeast 515 593 37,000  Level Houston Center
07:39PM 27.5839 -93.5719 142° Southeast 512 589 37,000  Level Houston Center
07:40PM 27.4528 -93.4458 140° Southeast 513 590 37,000  Level Houston Center
07:41PM 27.3431 -93.3417 140° Southeast 514 592 37,000  Level Houston Center
07:43PM 27.2331 -93.2400 141° Southeast 514 592 37,000  Level Houston Center
07:44PM 27.1233 -93.1372 140° Southeast 514 592 37,000  Level Houston Center
07:45PM 27.0139 -93.0333 140° Southeast 515 593 37,000  Level Houston Center
07:46PM 26.9033 -92.9342 141° Southeast 514 592 37,000  Level Houston Center
07:47PM 26.7689 -92.8156 142° Southeast 514 592 37,000  Level Houston Center
07:48PM 26.6489 -92.7317 148° Southeast 516 594 37,000  Level Houston Center
07:49PM 26.5281 -92.6561 151° Southeast 510 587 37,000  Level Houston Center
07:51PM 26.3348 -92.5279 149° Southeast  Level FlightAware Approximate
07:58PM 25.5783 -92.0413 149° Southeast  Level FlightAware Approximate
07:59PM 25.4711 -91.9703 149° Southeast  Level FlightAware Approximate
08:00PM 25.3639 -91.8994 149° Southeast  Level FlightAware Approximate
08:01PM 25.2567 -91.8286 149° Southeast  Level FlightAware Approximate
08:02PM 25.1494 -91.7579 149° Southeast  Level FlightAware Approximate
08:03PM 25.0421 -91.6874 149° Southeast  Level FlightAware Approximate
08:04PM 24.9348 -91.6170 149° Southeast  Level FlightAware Approximate
08:05PM 24.8274 -91.5468 149° Southeast  Level FlightAware Approximate
08:06PM 24.7200 -91.4766 149° Southeast  Level FlightAware Approximate
08:07PM 24.6126 -91.4066 149° Southeast  Level FlightAware Approximate
08:08PM 24.5051 -91.3366 149° Southeast  Level FlightAware Approximate
08:09PM 24.3918 -91.2792 155° Southeast  Level FlightAware Approximate
08:10PM 24.2781 -91.2224 156° South  Level FlightAware Approximate
08:11PM 24.1640 -91.1667 156° South  Level FlightAware Approximate
08:12PM 24.0499 -91.1113 156° South  Level FlightAware Approximate
08:13PM 23.9357 -91.0560 156° South  Level FlightAware Approximate
08:14PM 23.8215 -91.0008 156° South  Level FlightAware Approximate
08:15PM 23.7073 -90.9457 156° South  Level FlightAware Approximate
08:16PM 23.5930 -90.8906 156° South  Level FlightAware Approximate
08:17PM 23.4788 -90.8357 156° South  Level FlightAware Approximate
08:18PM 23.3645 -90.7809 156° South  Level FlightAware Approximate
08:19PM 23.2500 -90.7264 157° South  Level FlightAware Approximate
08:20PM 23.1355 -90.6724 157° South  Level FlightAware Approximate
08:21PM 23.0209 -90.6184 157° South  Level FlightAware Approximate
08:22PM 22.9063 -90.5646 157° South  Level FlightAware Approximate
08:23PM 22.7917 -90.5108 157° South  Level FlightAware Approximate
08:24PM 22.6770 -90.4572 157° South  Level FlightAware Approximate
08:25PM 22.5624 -90.4036 157° South  Level FlightAware Approximate
08:26PM 22.4477 -90.3501 157° South  Level FlightAware Approximate
08:27PM 22.3330 -90.2967 157° South  Level FlightAware Approximate
08:28PM 22.2183 -90.2434 157° South  Level FlightAware Approximate
08:29PM 22.1035 -90.1902 157° South  Level FlightAware Approximate
08:30PM 21.9888 -90.1370 157° South  Level FlightAware Approximate
08:31PM 21.8740 -90.0840 157° South  Level FlightAware Approximate
08:32PM 21.7593 -90.0310 157° South  Level FlightAware Approximate
08:33PM 21.6445 -89.9781 157° South  Level FlightAware Approximate
08:34PM 21.5297 -89.9251 157° South  Level FlightAware Approximate
08:35PM 21.4151 -89.8720 157° South  Level FlightAware Approximate
08:36PM 21.3004 -89.8190 157° South  Level FlightAware Approximate
08:37PM 21.1856 -89.7661 157° South  Level FlightAware Approximate
08:38PM 21.0709 -89.7133 157° South  Level FlightAware Approximate
08:39PM 20.9562 -89.6605 157° South  Level FlightAware Approximate
08:40PM 20.8398 -89.6121 159° South  Level FlightAware Approximate
08:41PM 20.7230 -89.5648 159° South  Level FlightAware Approximate
08:42PM 20.6062 -89.5176 159° South  Level FlightAware Approximate
08:43PM 20.4894 -89.4705 159° South  Level FlightAware Approximate
08:44PM 20.3726 -89.4234 159° South  Level FlightAware Approximate
08:45PM 20.2558 -89.3764 159° South  Level FlightAware Approximate
08:46PM 20.1389 -89.3295 159° South  Level FlightAware Approximate
08:47PM 20.0221 -89.2827 159° South  Level FlightAware Approximate
08:48PM 19.9052 -89.2359 159° South  Level FlightAware Approximate
08:49PM 19.7883 -89.1892 159° South  Level FlightAware Approximate
08:50PM 19.6714 -89.1425 159° South  Level FlightAware Approximate
08:51PM 19.5545 -89.0960 159° South  Level FlightAware Approximate
08:52PM 19.4376 -89.0495 159° South  Level FlightAware Approximate
08:53PM 19.3206 -89.0030 159° South  Level FlightAware Approximate
08:54PM 19.2037 -88.9566 159° South  Level FlightAware Approximate
08:55PM 19.0867 -88.9103 159° South  Level FlightAware Approximate
08:56PM 18.9697 -88.8641 160° South  Level FlightAware Approximate
08:57PM 18.8528 -88.8179 160° South  Level FlightAware Approximate
08:58PM 18.7358 -88.7718 160° South  Level FlightAware Approximate
08:59PM 18.6188 -88.7258 160° South  Level FlightAware Approximate
09:00PM 18.5018 -88.6798 160° South  Level FlightAware Approximate
09:01PM 18.3848 -88.6339 160° South  Level FlightAware Approximate
09:02PM 18.2665 -88.5915 161° South  Level FlightAware Approximate
09:03PM 18.1483 -88.5493 161° South  Level FlightAware Approximate
09:04PM 18.0301 -88.5071 161° South  Level FlightAware Approximate
09:05PM 17.9119 -88.4646 157° South  Level FlightAware Approximate
09:06PM 17.7966 -88.4144 157° South  Level FlightAware Approximate
09:07PM 17.6812 -88.3642 157° South  Level FlightAware Approximate
09:08PM 17.5658 -88.3141 158° South  Level FlightAware Approximate
09:09PM 17.4452 -88.2823 169° South  Level FlightAware Approximate
09:10PM 17.3226 -88.2578 169° South  Level FlightAware Approximate
09:11PM 17.1999 -88.2333 169° South  Level FlightAware Approximate
09:12PM 17.0772 -88.2094 170° South  Level FlightAware Approximate
09:13PM 16.9542 -88.1867 170° South  Level FlightAware Approximate
09:14PM 16.8312 -88.1641 170° South  Level FlightAware Approximate
09:15PM 16.7082 -88.1415 170° South  Level FlightAware Approximate
09:16PM 16.5852 -88.1190 170° South  Level FlightAware Approximate
09:17PM 16.4622 -88.0965 170° South  Level FlightAware Approximate
09:18PM 16.3393 -88.0740 170° South  Level FlightAware Approximate
09:19PM 16.2163 -88.0515 170° South  Level FlightAware Approximate
09:20PM 16.0934 -88.0285 169° South  Level FlightAware Approximate
09:21PM 15.9709 -88.0033 169° South  Level FlightAware Approximate
09:22PM 15.8484 -87.9782 169° South  Level FlightAware Approximate
09:23PM 15.7259 -87.9531 169° South  Level FlightAware Approximate
09:24PM 15.6033 -87.9280 169° South  Level FlightAware Approximate
09:25PM 15.4808 -87.9029 169° South  Level FlightAware Approximate
09:26PM 15.3672 -87.8503 154° Southeast  Level FlightAware Approximate
09:27PM 15.2538 -87.7961 157° South  Level FlightAware Approximate
09:28PM 15.1391 -87.7450 157° South  Level FlightAware Approximate
09:29PM 15.0243 -87.6940 157° South  Level FlightAware Approximate
09:30PM 14.9095 -87.6431 157° South  Level FlightAware Approximate
09:31PM 14.7956 -87.5904 155° Southeast  Level FlightAware Approximate
09:32PM 14.6824 -87.5359 155° Southeast  Level FlightAware Approximate
09:33PM 14.5692 -87.4814 155° Southeast  Level FlightAware Approximate
09:34PM 14.4560 -87.4269 155° Southeast  Level FlightAware Approximate
09:35PM 14.3428 -87.3726 155° Southeast  Level FlightAware Approximate
09:36PM 14.2295 -87.3184 155° Southeast  Level FlightAware Approximate
09:37PM 14.1162 -87.2642 155° Southeast  Level FlightAware Approximate
09:38PM 14.0016 -87.2185 187° South  Level FlightAware Approximate
09:39PM 13.8776 -87.2334 187° South  Level FlightAware Approximate
09:40PM 13.7535 -87.2483 187° South  Level FlightAware Approximate
09:41PM 13.6295 -87.2631 187° South  Level FlightAware Approximate
09:42PM 13.5239 -87.2079 143° Southeast  Level FlightAware Approximate
09:43PM 13.4240 -87.1309 143° Southeast  Level FlightAware Approximate
09:44PM 13.3240 -87.0539 143° Southeast  Level FlightAware Approximate
09:45PM 13.2241 -86.9771 143° Southeast  Level FlightAware Approximate
09:46PM 13.1241 -86.9002 143° Southeast  Level FlightAware Approximate
09:47PM 13.0241 -86.8235 143° Southeast  Level FlightAware Approximate
09:48PM 12.9237 -86.7473 144° Southeast  Level FlightAware Approximate
09:49PM 12.8223 -86.6725 144° Southeast  Level FlightAware Approximate
09:50PM 12.7209 -86.5978 144° Southeast  Level FlightAware Approximate
09:51PM 12.6194 -86.5232 144° Southeast  Level FlightAware Approximate
09:52PM 12.5179 -86.4486 144° Southeast  Level FlightAware Approximate
09:53PM 12.4164 -86.3741 144° Southeast  Level FlightAware Approximate
09:54PM 12.3149 -86.2997 144° Southeast  Level FlightAware Approximate
09:55PM 12.2134 -86.2253 144° Southeast  Level FlightAware Approximate
09:56PM 12.1089 -86.1566 158° South  Level FlightAware Approximate
09:57PM 11.9930 -86.1089 158° South  Level FlightAware Approximate
09:58PM 11.8772 -86.0612 158° South  Level FlightAware Approximate
09:59PM 11.7614 -86.0136 158° South  Level FlightAware Approximate
10:00PM 11.6455 -85.9660 158° South  Level FlightAware Approximate
10:01PM 11.5297 -85.9184 158° South  Level FlightAware Approximate
10:02PM 11.4138 -85.8709 158° South  Level FlightAware Approximate
10:03PM 11.2979 -85.8234 158° South  Level FlightAware Approximate
10:04PM 11.1820 -85.7760 158° South  Level FlightAware Approximate
10:05PM 11.0660 -85.7289 158° South  Level FlightAware Approximate
10:06PM 10.9500 -85.6819 158° South  Level FlightAware Approximate
10:07PM 10.8340 -85.6348 158° South  Level FlightAware Approximate
10:08PM 10.7180 -85.5878 158° South  Level FlightAware Approximate
10:09PM 10.6020 -85.5409 158° South  Level FlightAware Approximate
10:10PM 10.4850 -85.4965 160° South  Level FlightAware Approximate
10:11PM 10.3678 -85.4527 160° South  Level FlightAware Approximate
10:12PM 10.2506 -85.4089 160° South  Level FlightAware Approximate
10:13PM 10.1334 -85.3651 160° South  Level FlightAware Approximate
10:14PM 10.0153 -85.3210 160° South  Level FlightAware Approximate
10:15PM 9.8971 -85.2769 160° South  Level FlightAware Approximate
10:16PM 9.7790 -85.2329 160° South  Level FlightAware Approximate
10:17PM 9.6608 -85.1889 160° South  Level FlightAware Approximate
10:18PM 9.5427 -85.1449 160° South  Level FlightAware Approximate
10:19PM 9.4246 -85.1009 160° South  Level FlightAware Approximate
10:20PM 9.3065 -85.0567 160° South  Level FlightAware Approximate
10:21PM 9.1884 -85.0126 160° South  Level FlightAware Approximate
10:22PM 9.0703 -84.9685 160° South  Level FlightAware Approximate
10:23PM 8.9523 -84.9244 160° South  Level FlightAware Approximate
10:24PM 8.8342 -84.8803 160° South  Level FlightAware Approximate
10:25PM 8.7161 -84.8363 160° South  Level FlightAware Approximate
10:26PM 8.5980 -84.7923 160° South  Level FlightAware Approximate
10:27PM 8.4799 -84.7483 160° South  Level FlightAware Approximate
10:28PM 8.3618 -84.7044 160° South  Level FlightAware Approximate
10:29PM 8.2443 -84.6587 159° South  Level FlightAware Approximate
10:30PM 8.1269 -84.6128 159° South  Level FlightAware Approximate
10:31PM 8.0095 -84.5670 159° South  Level FlightAware Approximate
10:32PM 7.8921 -84.5212 159° South  Level FlightAware Approximate
10:33PM 7.7747 -84.4754 159° South  Level FlightAware Approximate
10:34PM 7.6573 -84.4298 160° South  Level FlightAware Approximate
10:35PM 7.5393 -84.3857 160° South  Level FlightAware Approximate
10:36PM 7.4212 -84.3416 160° South  Level FlightAware Approximate
10:37PM 7.3032 -84.2975 160° South  Level FlightAware Approximate
10:38PM 7.1852 -84.2534 160° South  Level FlightAware Approximate
10:39PM 7.0672 -84.2093 160° South  Level FlightAware Approximate
10:40PM 6.9492 -84.1653 160° South  Level FlightAware Approximate
10:41PM 6.8311 -84.1213 160° South  Level FlightAware Approximate
10:42PM 6.7131 -84.0773 160° South  Level FlightAware Approximate
10:43PM 6.5951 -84.0334 160° South  Level FlightAware Approximate
10:44PM 6.4770 -83.9894 160° South  Level FlightAware Approximate
10:45PM 6.3590 -83.9455 160° South  Level FlightAware Approximate
10:46PM 6.2409 -83.9016 160° South  Level FlightAware Approximate
10:47PM 6.1229 -83.8577 160° South  Level FlightAware Approximate
10:48PM 6.0048 -83.8139 160° South  Level FlightAware Approximate
10:49PM 5.8868 -83.7700 160° South  Level FlightAware Approximate
10:50PM 5.7687 -83.7262 160° South  Level FlightAware Approximate
10:51PM 5.6506 -83.6824 160° South  Level FlightAware Approximate
10:52PM 5.5326 -83.6386 160° South  Level FlightAware Approximate
10:53PM 5.4145 -83.5948 160° South  Level FlightAware Approximate
10:54PM 5.2964 -83.5511 160° South  Level FlightAware Approximate
10:55PM 5.1783 -83.5073 160° South  Level FlightAware Approximate
10:56PM 5.0602 -83.4636 160° South  Level FlightAware Approximate
10:57PM 4.9422 -83.4199 160° South  Level FlightAware Approximate
10:58PM 4.8238 -83.3770 160° South  Level FlightAware Approximate
10:59PM 4.7054 -83.3342 160° South  Level FlightAware Approximate
11:00PM 4.5870 -83.2913 160° South  Level FlightAware Approximate
11:01PM 4.4686 -83.2485 160° South  Level FlightAware Approximate
11:02PM 4.3502 -83.2057 160° South  Level FlightAware Approximate
11:03PM 4.2318 -83.1629 160° South  Level FlightAware Approximate
11:04PM 4.1134 -83.1201 160° South  Level FlightAware Approximate
11:05PM 3.9950 -83.0773 160° South  Level FlightAware Approximate
11:06PM 3.8766 -83.0346 160° South  Level FlightAware Approximate
11:07PM 3.7582 -82.9918 160° South  Level FlightAware Approximate
11:08PM 3.6398 -82.9491 160° South  Level FlightAware Approximate
11:09PM 3.5215 -82.9059 159° South  Level FlightAware Approximate
11:10PM 3.4038 -82.8615 159° South  Level FlightAware Approximate
11:11PM 3.2860 -82.8170 159° South  Level FlightAware Approximate
11:12PM 3.1682 -82.7725 159° South  Level FlightAware Approximate
11:13PM 3.0505 -82.7281 159° South  Level FlightAware Approximate
11:14PM 2.9327 -82.6837 159° South  Level FlightAware Approximate
11:15PM 2.8149 -82.6392 159° South  Level FlightAware Approximate
11:16PM 2.6971 -82.5948 159° South  Level FlightAware Approximate
11:17PM 2.5791 -82.5510 160° South  Level FlightAware Approximate
11:18PM 2.4610 -82.5075 160° South  Level FlightAware Approximate
11:19PM 2.3429 -82.4639 160° South  Level FlightAware Approximate
11:20PM 2.2248 -82.4204 160° South  Level FlightAware Approximate
11:21PM 2.1067 -82.3768 160° South  Level FlightAware Approximate
11:22PM 1.9886 -82.3333 160° South  Level FlightAware Approximate
11:23PM 1.8705 -82.2898 160° South  Level FlightAware Approximate
11:24PM 1.7524 -82.2463 160° South  Level FlightAware Approximate
11:25PM 1.6343 -82.2028 160° South  Level FlightAware Approximate
11:26PM 1.5162 -82.1593 160° South  Level FlightAware Approximate
11:27PM 1.3981 -82.1158 160° South  Level FlightAware Approximate
11:28PM 1.2800 -82.0723 160° South  Level FlightAware Approximate
11:29PM 1.1619 -82.0288 160° South  Level FlightAware Approximate
11:30PM 1.0438 -81.9853 160° South  Level FlightAware Approximate
11:31PM 0.9257 -81.9418 160° South  Level FlightAware Approximate
11:32PM 0.8076 -81.8983 160° South  Level FlightAware Approximate
11:33PM 0.6895 -81.8548 160° South  Level FlightAware Approximate
11:34PM 0.5714 -81.8113 160° South  Level FlightAware Approximate
11:35PM 0.4533 -81.7679 160° South  Level FlightAware Approximate
11:36PM 0.3352 -81.7244 160° South  Level FlightAware Approximate
11:37PM 0.2171 -81.6809 160° South  Level FlightAware Approximate
11:38PM 0.0989 -81.6374 160° South  Level FlightAware Approximate
11:39PM -0.0192 -81.5940 160° South  Level FlightAware Approximate
11:40PM -0.1373 -81.5505 160° South  Level FlightAware Approximate
11:41PM -0.2554 -81.5070 160° South  Level FlightAware Approximate
11:42PM -0.3735 -81.4635 160° South  Level FlightAware Approximate
11:43PM -0.4916 -81.4201 160° South  Level FlightAware Approximate
11:44PM -0.6097 -81.3766 160° South  Level FlightAware Approximate
11:45PM -0.7278 -81.3331 160° South  Level FlightAware Approximate
11:46PM -0.8459 -81.2896 160° South  Level FlightAware Approximate
11:47PM -0.9640 -81.2461 160° South  Level FlightAware Approximate
11:48PM -1.0822 -81.2026 160° South  Level FlightAware Approximate
11:49PM -1.2003 -81.1591 160° South  Level FlightAware Approximate
11:50PM -1.3184 -81.1156 160° South  Level FlightAware Approximate
11:51PM -1.4365 -81.0722 160° South  Level FlightAware Approximate
11:52PM -1.5546 -81.0286 160° South  Level FlightAware Approximate
11:53PM -1.6727 -80.9851 160° South  Level FlightAware Approximate
11:54PM -1.7908 -80.9416 160° South  Level FlightAware Approximate
11:55PM -1.9089 -80.8981 160° South  Level FlightAware Approximate
11:56PM -2.0270 -80.8546 160° South  Level FlightAware Approximate
11:57PM -2.1451 -80.8111 160° South  Level FlightAware Approximate
11:58PM -2.2632 -80.7675 160° South  Level FlightAware Approximate
11:59PM -2.3813 -80.7240 160° South  Level FlightAware Approximate
12:00AM -2.4994 -80.6804 160° South  Level FlightAware Approximate
12:01AM -2.6174 -80.6368 160° South  Level FlightAware Approximate
12:02AM -2.7355 -80.5933 160° South  Level FlightAware Approximate
12:03AM -2.8536 -80.5497 160° South  Level FlightAware Approximate
12:04AM -2.9717 -80.5061 160° South  Level FlightAware Approximate
12:05AM -3.0898 -80.4625 160° South  Level FlightAware Approximate
12:06AM -3.2079 -80.4189 160° South  Level FlightAware Approximate
12:07AM -3.3260 -80.3753 160° South  Level FlightAware Approximate
12:08AM -3.4441 -80.3316 160° South  Level FlightAware Approximate
12:09AM -3.5621 -80.2880 160° South  Level FlightAware Approximate
12:10AM -3.6802 -80.2444 160° South  Level FlightAware Approximate
12:11AM -3.7983 -80.2007 160° South  Level FlightAware Approximate
12:12AM -3.9163 -80.1570 160° South  Level FlightAware Approximate
12:13AM -4.0344 -80.1133 160° South  Level FlightAware Approximate
12:14AM -4.1525 -80.0696 160° South  Level FlightAware Approximate
12:15AM -4.2706 -80.0259 160° South  Level FlightAware Approximate
12:16AM -4.3886 -79.9822 160° South  Level FlightAware Approximate
12:17AM -4.5067 -79.9385 160° South  Level FlightAware Approximate
12:18AM -4.6247 -79.8947 160° South  Level FlightAware Approximate
12:19AM -4.7428 -79.8510 160° South  Level FlightAware Approximate
12:20AM -4.8608 -79.8072 160° South  Level FlightAware Approximate
12:21AM -4.9789 -79.7634 160° South  Level FlightAware Approximate
12:22AM -5.0970 -79.7196 160° South  Level FlightAware Approximate
12:23AM -5.2150 -79.6757 160° South  Level FlightAware Approximate
12:24AM -5.3330 -79.6319 160° South  Level FlightAware Approximate
12:25AM -5.4511 -79.5880 160° South  Level FlightAware Approximate
12:26AM -5.5691 -79.5442 160° South  Level FlightAware Approximate
12:27AM -5.6871 -79.5003 160° South  Level FlightAware Approximate
12:28AM -5.8052 -79.4564 160° South  Level FlightAware Approximate
12:29AM -5.9232 -79.4124 160° South  Level FlightAware Approximate
12:30AM -6.0412 -79.3685 160° South  Level FlightAware Approximate
12:31AM -6.1592 -79.3245 160° South  Level FlightAware Approximate
12:32AM -6.2772 -79.2805 160° South  Level FlightAware Approximate
12:33AM -6.3952 -79.2365 160° South  Level FlightAware Approximate
12:34AM -6.5132 -79.1925 160° South  Level FlightAware Approximate
12:35AM -6.6312 -79.1484 160° South  Level FlightAware Approximate
12:36AM -6.7492 -79.1043 160° South  Level FlightAware Approximate
12:37AM -6.8672 -79.0603 160° South  Level FlightAware Approximate
12:38AM -6.9852 -79.0161 160° South  Level FlightAware Approximate
12:39AM -7.1032 -78.9720 160° South  Level FlightAware Approximate
12:40AM -7.2212 -78.9278 160° South  Level FlightAware Approximate
12:41AM -7.3392 -78.8837 160° South  Level FlightAware Approximate
12:42AM -7.4571 -78.8394 160° South  Level FlightAware Approximate
12:43AM -7.5751 -78.7952 160° South  Level FlightAware Approximate
12:44AM -7.6931 -78.7510 160° South  Level FlightAware Approximate
12:45AM -7.8110 -78.7067 160° South  Level FlightAware Approximate
12:46AM -7.9290 -78.6624 160° South  Level FlightAware Approximate
12:47AM -8.0470 -78.6180 160° South  Level FlightAware Approximate
12:48AM -8.1649 -78.5737 160° South  Level FlightAware Approximate
12:49AM -8.2829 -78.5293 160° South  Level FlightAware Approximate
12:50AM -8.4008 -78.4849 160° South  Level FlightAware Approximate
12:51AM -8.5187 -78.4405 160° South  Level FlightAware Approximate
12:52AM -8.6367 -78.3960 160° South  Level FlightAware Approximate
12:53AM -8.7546 -78.3515 160° South  Level FlightAware Approximate
12:54AM -8.8725 -78.3070 160° South  Level FlightAware Approximate
12:55AM -8.9904 -78.2624 160° South  Level FlightAware Approximate
12:56AM -9.1083 -78.2179 160° South  Level FlightAware Approximate
12:57AM -9.2262 -78.1732 160° South  Level FlightAware Approximate
12:58AM -9.3441 -78.1286 160° South  Level FlightAware Approximate
12:59AM -9.4620 -78.0839 160° South  Level FlightAware Approximate
01:00AM -9.5799 -78.0393 160° South  Level FlightAware Approximate
01:01AM -9.6976 -77.9943 158° South  Level FlightAware Approximate
01:02AM -9.8147 -77.9474 158° South  Level FlightAware Approximate
01:03AM -9.9331 -77.9040 161° South  Level FlightAware Approximate
01:04AM -10.0519 -77.8621 161° South  Level FlightAware Approximate
01:05AM -10.1689 -77.8155 154° Southeast  Level FlightAware Approximate
01:06AM -10.2877 -77.7749 159° South  Level FlightAware Approximate
01:07AM -10.4048 -77.7281 159° South  Level FlightAware Approximate
01:08AM -10.5219 -77.6814 160° South  Level FlightAware Approximate
01:09AM -10.6400 -77.6371 160° South  Level FlightAware Approximate
01:10AM -10.7581 -77.5928 160° South  Level FlightAware Approximate
01:11AM -10.8761 -77.5482 160° South  Level FlightAware Approximate
01:12AM -10.9941 -77.5035 160° South  Level FlightAware Approximate
01:13AM -11.1120 -77.4587 160° South  Level FlightAware Approximate
01:14AM -11.2299 -77.4139 160° South  Level FlightAware Approximate
01:15AM -11.3461 -77.3647 156° South  Level FlightAware Approximate
01:16AM -11.4632 -77.3178 162° South  Level FlightAware Approximate
01:17AM -11.5828 -77.2780 162° South  Level FlightAware Approximate
01:18AM -11.6994 -77.2299 156° South  Level FlightAware Approximate
01:19AM -11.8155 -77.1839 154° Southeast  Level FlightAware Approximate
01:20AM -11.9314 -77.1341 159° South  Level FlightAware Approximate
01:21AM -12.0167 -77.1167 169° South  Level FlightAware Approximate
01:22AM -12.0219 -77.1143 169° South  Level Estimated
01:23AM -12.0167 -77.1167 169° South  Level FlightAware Approximate
01:24AM -12.0219 -77.1143 169° South  Level Estimated
01:25AM -12.0167 -77.1167 169° South  Level FlightAware Approximate
01:26AM -12.0219 -77.1143 169° South  Level Estimated
01:27AM -12.0167 -77.1167 169° South  Level FlightAware Approximate
01:28AM -12.0219 -77.1143 169° South  Level Estimated